createdAt,value
2019-05-09T00:01:14.148Z,2.70
2019-05-09T00:03:44.369Z,2.20
2019-05-09T00:06:13.715Z,2.40
2019-05-09T00:08:44.199Z,2.93
2019-05-09T00:11:14.652Z,2.97
2019-05-09T00:13:43.664Z,2.20
2019-05-09T00:16:14.544Z,3.30
2019-05-09T00:18:44.120Z,3.03
2019-05-09T00:21:17.852Z,2.70
2019-05-09T00:23:46.489Z,2.00
2019-05-09T00:26:15.100Z,3.27
2019-05-09T00:28:46.732Z,2.53
2019-05-09T00:31:30.353Z,2.10
2019-05-09T00:34:04.216Z,2.40
2019-05-09T00:36:33.477Z,2.57
2019-05-09T00:39:04.094Z,2.60
2019-05-09T00:41:33.156Z,1.90
2019-05-09T00:44:08.148Z,2.33
2019-05-09T00:46:43.214Z,2.00
2019-05-09T00:49:16.413Z,2.13
2019-05-09T00:51:45.011Z,2.00
2019-05-09T00:54:13.712Z,2.20
2019-05-09T00:56:43.643Z,2.03
2019-05-09T00:59:13.495Z,1.87
2019-05-09T01:01:43.734Z,1.80
2019-05-09T01:04:13.636Z,2.00
2019-05-09T01:06:43.387Z,1.90
2019-05-09T01:09:13.697Z,1.90
2019-05-09T01:11:43.983Z,2.13
2019-05-09T01:14:14.186Z,1.83
2019-05-09T01:16:44.060Z,1.73
2019-05-09T01:19:14.100Z,1.60
2019-05-09T01:21:43.825Z,1.70
2019-05-09T01:24:13.926Z,1.63
2019-05-09T01:26:43.542Z,1.30
2019-05-09T01:29:13.848Z,1.33
2019-05-09T01:31:43.607Z,1.30
2019-05-09T01:34:17.239Z,1.43
2019-05-09T01:37:04.176Z,1.77
2019-05-09T01:39:33.714Z,1.27
2019-05-09T01:42:03.278Z,1.90
2019-05-09T01:44:33.513Z,1.90
2019-05-09T01:47:03.721Z,1.67
2019-05-09T01:49:34.241Z,1.73
2019-05-09T01:52:03.551Z,2.20
2019-05-09T01:54:33.400Z,2.00
2019-05-09T01:57:03.286Z,1.60
2019-05-09T01:59:33.943Z,2.30
2019-05-09T02:02:08.241Z,1.83
2019-05-09T02:04:33.771Z,1.67
2019-05-09T02:07:04.074Z,1.80
2019-05-09T02:09:34.262Z,1.63
2019-05-09T02:12:04.136Z,1.60
2019-05-09T02:14:43.723Z,1.47
2019-05-09T02:17:23.217Z,1.90
2019-05-09T02:19:53.280Z,1.90
2019-05-09T02:22:34.751Z,1.87
2019-05-09T02:25:05.335Z,1.40
2019-05-09T02:27:33.995Z,1.57
2019-05-09T02:30:05.801Z,1.33
2019-05-09T02:32:34.725Z,1.20
2019-05-09T02:35:04.964Z,1.63
2019-05-09T02:37:33.806Z,1.57
2019-05-09T02:40:02.584Z,1.40
2019-05-09T02:42:31.196Z,1.50
2019-05-09T02:44:59.774Z,1.30
2019-05-09T02:47:29.174Z,1.23
2019-05-09T02:49:59.026Z,1.33
2019-05-09T02:52:28.818Z,1.50
2019-05-09T02:54:58.493Z,1.63
2019-05-09T02:57:29.347Z,1.43
2019-05-09T03:00:15.126Z,3.60
2019-05-09T03:02:53.521Z,1.70
2019-05-09T03:05:22.225Z,1.37
2019-05-09T03:07:50.914Z,1.50
2019-05-09T03:10:20.616Z,1.70
2019-05-09T03:12:50.396Z,1.33
2019-05-09T03:15:19.546Z,1.63
2019-05-09T03:17:49.499Z,1.60
2019-05-09T03:20:45.700Z,1.70
2019-05-09T03:23:18.891Z,2.40
2019-05-09T03:25:48.494Z,1.80
2019-05-09T03:28:41.767Z,1.40
2019-05-09T03:31:11.528Z,1.70
2019-05-09T03:33:40.956Z,1.73
2019-05-09T03:36:09.973Z,2.13
2019-05-09T03:38:38.715Z,1.70
2019-05-09T03:41:08.478Z,2.17
2019-05-09T03:43:37.794Z,2.00
2019-05-09T03:46:13.987Z,1.77
2019-05-09T03:48:47.824Z,2.60
2019-05-09T03:51:18.345Z,1.87
2019-05-09T03:53:48.388Z,1.93
2019-05-09T03:56:20.113Z,2.50
2019-05-09T03:58:48.807Z,2.20
2019-05-09T04:01:17.617Z,2.50
2019-05-09T04:03:48.122Z,2.43
2019-05-09T04:06:18.491Z,2.33
2019-05-09T04:08:48.164Z,2.77
2019-05-09T04:11:18.533Z,1.97
2019-05-09T04:13:55.232Z,2.20
2019-05-09T04:16:23.906Z,2.60
2019-05-09T04:18:52.523Z,1.83
2019-05-09T04:21:21.168Z,2.50
2019-05-09T04:23:49.790Z,2.23
2019-05-09T04:26:43.256Z,1.90
2019-05-09T04:29:11.868Z,1.87
2019-05-09T04:31:40.481Z,2.40
2019-05-09T04:34:09.751Z,2.37
2019-05-09T04:36:38.714Z,2.80
2019-05-09T04:39:12.591Z,2.47
2019-05-09T04:41:40.117Z,3.10
2019-05-09T04:44:16.821Z,2.87
2019-05-09T04:46:41.860Z,2.90
2019-05-09T04:49:10.467Z,3.47
2019-05-09T04:51:39.416Z,3.20
2019-05-09T04:54:08.051Z,3.03
2019-05-09T04:56:38.998Z,3.20
2019-05-09T04:59:07.782Z,2.60
2019-05-09T05:01:50.527Z,2.77
2019-05-09T05:04:20.299Z,5.17
2019-05-09T05:06:48.911Z,2.87
2019-05-09T05:09:21.042Z,2.07
2019-05-09T05:11:49.124Z,2.23
2019-05-09T05:14:23.572Z,2.10
2019-05-09T05:16:55.318Z,2.37
2019-05-09T05:19:24.922Z,2.13
2019-05-09T05:21:54.706Z,2.13
2019-05-09T05:24:28.097Z,1.50
2019-05-09T05:26:57.874Z,1.80
2019-05-09T05:29:28.206Z,2.90
2019-05-09T05:31:58.722Z,1.80
2019-05-09T05:34:38.398Z,1.90
2019-05-09T05:37:17.544Z,1.50
2019-05-09T05:39:47.761Z,2.07
2019-05-09T05:42:22.123Z,1.60
2019-05-09T05:44:58.101Z,2.33
2019-05-09T05:47:37.941Z,1.80
2019-05-09T05:50:09.977Z,1.63
2019-05-09T05:52:41.472Z,1.67
2019-05-09T05:55:11.879Z,1.97
2019-05-09T05:57:43.527Z,1.97
2019-05-09T06:00:14.762Z,2.37
2019-05-09T06:02:47.696Z,1.80
2019-05-09T06:05:27.773Z,1.20
2019-05-09T06:08:12.575Z,3.50
2019-05-09T06:10:43.685Z,1.70
2019-05-09T06:13:12.784Z,1.50
2019-05-09T06:15:42.362Z,1.50
2019-05-09T06:18:12.614Z,1.30
2019-05-09T06:20:48.675Z,1.33
2019-05-09T06:23:19.597Z,1.33
2019-05-09T06:25:48.841Z,1.40
2019-05-09T06:28:19.588Z,1.70
2019-05-09T06:30:50.296Z,2.00
2019-05-09T06:33:21.169Z,1.17
2019-05-09T06:35:58.847Z,1.30
2019-05-09T06:38:33.362Z,1.03
2019-05-09T06:41:08.869Z,1.50
2019-05-09T06:43:44.670Z,1.20
2019-05-09T06:46:28.534Z,1.27
2019-05-09T06:49:21.342Z,1.30
2019-05-09T06:51:38.770Z,1.97
2019-05-09T06:54:11.170Z,1.10
2019-05-09T06:56:43.229Z,1.37
2019-05-09T06:59:14.889Z,1.33
2019-05-09T07:01:53.192Z,1.00
2019-05-09T07:04:43.599Z,1.10
2019-05-09T07:07:21.084Z,1.10
2019-05-09T07:10:03.200Z,1.17
2019-05-09T07:12:34.322Z,1.10
2019-05-09T07:15:08.842Z,1.53
2019-05-09T07:17:40.677Z,1.60
2019-05-09T07:20:10.801Z,1.60
2019-05-09T07:22:54.775Z,1.20
2019-05-09T07:25:50.961Z,1.43
2019-05-09T07:28:19.576Z,1.50
2019-05-09T07:30:57.349Z,1.40
2019-05-09T07:33:51.461Z,1.17
2019-05-09T07:36:20.092Z,1.50
2019-05-09T07:38:48.702Z,1.37
2019-05-09T07:41:17.902Z,1.60
2019-05-09T07:43:47.848Z,1.60
2019-05-09T07:46:22.499Z,1.60
2019-05-09T07:48:51.202Z,1.50
2019-05-09T07:51:19.822Z,1.93
2019-05-09T07:53:48.512Z,1.30
2019-05-09T07:56:18.674Z,2.63
2019-05-09T07:58:47.834Z,1.60
2019-05-09T08:01:18.824Z,1.70
2019-05-09T08:03:48.975Z,1.73
2019-05-09T08:06:18.388Z,1.77
2019-05-09T08:08:47.750Z,1.47
2019-05-09T08:11:18.066Z,1.70
2019-05-09T08:13:48.611Z,1.90
2019-05-09T08:16:18.607Z,1.90
2019-05-09T08:18:48.323Z,1.80
2019-05-09T08:21:18.053Z,1.80
2019-05-09T08:23:48.542Z,1.57
2019-05-09T08:26:18.913Z,1.33
2019-05-09T08:28:48.124Z,1.70
2019-05-09T08:31:17.908Z,2.23
2019-05-09T08:33:48.485Z,1.60
2019-05-09T08:36:17.996Z,1.97
2019-05-09T08:38:47.845Z,1.40
2019-05-09T08:41:18.655Z,1.70
2019-05-09T08:43:48.377Z,1.40
2019-05-09T08:46:18.118Z,1.73
2019-05-09T08:48:48.535Z,1.30
2019-05-09T08:51:52.271Z,1.87
2019-05-09T08:54:29.091Z,1.33
2019-05-09T08:56:58.235Z,0.90
2019-05-09T08:59:27.602Z,1.43
2019-05-09T09:02:13.992Z,1.70
2019-05-09T09:04:29.406Z,1.20
2019-05-09T09:06:57.823Z,1.70
2019-05-09T09:09:28.526Z,1.80
2019-05-09T09:11:58.364Z,1.40
2019-05-09T09:14:27.893Z,1.43
2019-05-09T09:16:57.624Z,1.93
2019-05-09T09:19:28.013Z,1.00
2019-05-09T09:22:00.098Z,1.40
2019-05-09T09:24:28.335Z,1.20
2019-05-09T09:26:57.487Z,1.70
2019-05-09T09:29:28.313Z,1.50
2019-05-09T09:31:57.636Z,2.20
2019-05-09T09:34:27.775Z,1.63
2019-05-09T09:37:03.111Z,0.80
2019-05-09T09:39:27.627Z,1.00
2019-05-09T09:41:58.711Z,1.03
2019-05-09T09:44:28.716Z,1.30
2019-05-09T09:46:58.102Z,1.20
2019-05-09T09:49:29.321Z,1.10
2019-05-09T09:51:58.158Z,0.93
2019-05-09T09:54:28.151Z,1.40
2019-05-09T09:56:58.459Z,1.00
2019-05-09T09:59:49.350Z,1.50
2019-05-09T10:02:20.500Z,1.00
2019-05-09T10:04:49.265Z,1.30
2019-05-09T10:07:18.989Z,1.00
2019-05-09T10:09:48.105Z,1.40
2019-05-09T10:12:18.187Z,1.10
2019-05-09T10:14:52.955Z,0.93
2019-05-09T10:17:39.103Z,1.30
2019-05-09T10:20:19.611Z,1.20
2019-05-09T10:22:58.787Z,1.43
2019-05-09T10:25:18.593Z,1.10
2019-05-09T10:27:48.020Z,0.80
2019-05-09T10:30:18.248Z,1.00
2019-05-09T10:32:47.661Z,1.10
2019-05-09T10:35:22.814Z,1.10
2019-05-09T10:37:51.422Z,1.07
2019-05-09T10:40:23.051Z,1.50
2019-05-09T10:42:58.469Z,1.10
2019-05-09T10:45:43.995Z,0.63
2019-05-09T10:48:12.613Z,0.93
2019-05-09T10:50:44.374Z,1.23
2019-05-09T10:53:11.627Z,1.30
2019-05-09T10:55:40.259Z,1.10
2019-05-09T10:58:08.851Z,0.90
2019-05-09T11:00:39.200Z,0.87
2019-05-09T11:03:08.690Z,0.90
2019-05-09T11:05:37.599Z,0.90
2019-05-09T11:08:08.184Z,1.07
2019-05-09T11:10:39.785Z,0.97
2019-05-09T11:13:07.627Z,0.70
2019-05-09T11:15:37.492Z,0.97
2019-05-09T11:18:08.181Z,0.80
2019-05-09T11:20:36.614Z,0.90
2019-05-09T11:23:07.865Z,0.90
2019-05-09T11:25:37.903Z,1.30
2019-05-09T11:28:11.509Z,1.93
2019-05-09T11:30:38.505Z,0.90
2019-05-09T11:33:07.857Z,1.00
2019-05-09T11:35:37.969Z,0.93
2019-05-09T11:38:08.392Z,0.93
2019-05-09T11:40:37.965Z,1.20
2019-05-09T11:43:06.793Z,1.30
2019-05-09T11:45:35.395Z,1.00
2019-05-09T11:48:04.032Z,1.13
2019-05-09T11:50:32.634Z,1.00
2019-05-09T11:53:01.284Z,0.90
2019-05-09T11:55:36.067Z,0.90
2019-05-09T11:58:00.222Z,1.13
2019-05-09T12:00:29.568Z,0.73
2019-05-09T12:02:58.414Z,0.70
2019-05-09T12:05:28.772Z,0.70
2019-05-09T12:07:58.174Z,0.70
2019-05-09T12:10:28.528Z,1.00
2019-05-09T12:12:57.719Z,0.87
2019-05-09T12:15:28.771Z,0.97
2019-05-09T12:17:59.183Z,1.20
2019-05-09T12:20:27.686Z,1.00
2019-05-09T12:22:58.491Z,1.13
2019-05-09T12:25:28.281Z,0.90
2019-05-09T12:27:58.417Z,0.90
2019-05-09T12:30:28.422Z,1.03
2019-05-09T12:32:59.032Z,0.90
2019-05-09T12:35:27.937Z,1.20
2019-05-09T12:37:56.556Z,1.03
2019-05-09T12:40:25.151Z,0.67
2019-05-09T12:42:53.775Z,0.70
2019-05-09T12:45:22.537Z,0.73
2019-05-09T12:48:06.227Z,1.57
2019-05-09T12:50:21.581Z,1.17
2019-05-09T12:52:50.197Z,0.80
2019-05-09T12:55:18.897Z,0.70
2019-05-09T12:57:48.917Z,0.90
2019-05-09T13:00:18.833Z,1.20
2019-05-09T13:02:47.459Z,0.60
2019-05-09T13:05:18.106Z,1.03
2019-05-09T13:07:48.075Z,0.70
2019-05-09T13:10:19.340Z,0.70
2019-05-09T13:12:48.674Z,0.80
2019-05-09T13:15:20.687Z,0.80
2019-05-09T13:17:49.599Z,1.10
2019-05-09T13:20:18.923Z,0.70
2019-05-09T13:22:47.869Z,1.07
2019-05-09T13:25:18.877Z,0.70
2019-05-09T13:27:47.902Z,0.60
2019-05-09T13:30:19.167Z,0.70
2019-05-09T13:32:48.531Z,1.83
2019-05-09T13:35:19.849Z,1.00
2019-05-09T13:37:49.042Z,0.90
2019-05-09T13:40:19.001Z,0.90
2019-05-09T13:42:49.069Z,0.77
2019-05-09T13:45:18.730Z,0.90
2019-05-09T13:47:48.487Z,0.77
2019-05-09T13:50:18.601Z,0.90
2019-05-09T13:52:48.039Z,0.90
2019-05-09T13:55:17.801Z,1.10
2019-05-09T13:57:48.725Z,0.80
2019-05-09T14:00:18.776Z,0.90
2019-05-09T14:02:48.765Z,0.90
2019-05-09T14:05:18.969Z,1.37
2019-05-09T14:07:49.200Z,1.57
2019-05-09T14:10:18.756Z,1.70
2019-05-09T14:13:04.519Z,1.20
2019-05-09T14:15:19.673Z,2.57
2019-05-09T14:17:53.450Z,1.50
2019-05-09T14:20:20.893Z,1.50
2019-05-09T14:22:52.980Z,1.37
2019-05-09T14:25:24.035Z,1.60
2019-05-09T14:27:55.827Z,1.20
2019-05-09T14:30:28.678Z,1.50
2019-05-09T14:33:00.423Z,1.23
2019-05-09T14:35:32.917Z,1.30
2019-05-09T14:38:09.024Z,1.10
2019-05-09T14:40:59.373Z,2.20
2019-05-09T14:43:35.522Z,2.00
2019-05-09T14:46:08.283Z,2.37
2019-05-09T14:48:37.568Z,2.10
2019-05-09T14:51:18.654Z,2.00
2019-05-09T14:53:48.548Z,1.70
2019-05-09T14:56:17.936Z,1.70
2019-05-09T14:58:51.320Z,2.73
2019-05-09T15:01:23.811Z,2.67
2019-05-09T15:03:53.735Z,3.17
2019-05-09T15:06:23.442Z,3.00
2019-05-09T15:08:58.118Z,3.73
2019-05-09T15:11:31.918Z,2.00
2019-05-09T15:14:02.854Z,2.57
2019-05-09T15:16:39.182Z,2.20
2019-05-09T15:19:09.294Z,2.50
2019-05-09T15:21:56.925Z,1.47
2019-05-09T15:24:24.271Z,1.03
2019-05-09T15:26:55.047Z,0.97
2019-05-09T15:29:25.963Z,1.10
2019-05-09T15:32:04.530Z,1.00
2019-05-09T15:34:32.876Z,0.90
2019-05-09T15:37:01.893Z,0.97
2019-05-09T15:39:30.984Z,0.70
2019-05-09T15:42:07.404Z,0.80
2019-05-09T15:44:37.782Z,1.10
2019-05-09T15:47:48.264Z,0.90
2019-05-09T15:50:23.064Z,0.70
2019-05-09T15:56:24.585Z,0.70
2019-05-09T15:58:53.188Z,1.10
2019-05-09T16:01:21.822Z,1.10
2019-05-09T16:03:50.425Z,0.70
2019-05-09T16:06:20.393Z,0.90
2019-05-09T16:08:49.432Z,1.00
2019-05-09T16:11:18.283Z,0.67
2019-05-09T16:13:47.975Z,0.80
2019-05-09T16:16:17.598Z,4.30
2019-05-09T16:18:48.537Z,3.10
2019-05-09T16:21:16.971Z,0.80
2019-05-09T16:23:45.649Z,0.60
2019-05-09T16:26:14.366Z,0.60
2019-05-09T16:28:42.964Z,1.23
2019-05-09T16:31:11.625Z,4.50
2019-05-09T16:33:40.225Z,4.13
2019-05-09T16:36:08.903Z,3.63
2019-05-09T16:38:43.389Z,2.40
2019-05-09T16:41:07.948Z,1.07
2019-05-09T16:43:38.767Z,1.30
2019-05-09T16:46:07.671Z,0.83
2019-05-09T16:48:36.359Z,1.10
2019-05-09T16:51:07.739Z,1.13
2019-05-09T16:53:35.521Z,0.93
2019-05-09T16:56:04.220Z,1.07
2019-05-09T16:58:32.857Z,0.80
2019-05-09T17:01:01.515Z,1.03
2019-05-09T17:03:30.212Z,1.00
2019-05-09T17:06:00.490Z,1.10
2019-05-09T17:08:29.112Z,1.10
2019-05-09T17:10:58.614Z,1.00
2019-05-09T17:13:28.924Z,1.20
2019-05-09T17:15:58.220Z,1.30
2019-05-09T17:18:28.389Z,2.10
2019-05-09T17:21:28.236Z,2.00
2019-05-09T17:23:58.368Z,2.00
2019-05-09T17:26:28.352Z,2.00
2019-05-09T17:28:57.112Z,1.93
2019-05-09T17:31:27.578Z,1.50
2019-05-09T17:33:57.891Z,1.10
2019-05-09T17:36:28.526Z,0.77
2019-05-09T17:38:57.281Z,0.80
2019-05-09T17:41:28.286Z,1.00
2019-05-09T17:43:58.238Z,0.80
2019-05-09T17:46:27.546Z,0.80
2019-05-09T17:48:58.332Z,0.83
2019-05-09T17:51:33.875Z,0.80
2019-05-09T17:53:58.389Z,0.90
2019-05-09T17:56:27.329Z,1.00
2019-05-09T17:58:57.903Z,1.03
2019-05-09T18:01:27.743Z,0.90
2019-05-09T18:03:58.897Z,1.07
2019-05-09T18:06:28.163Z,0.93
2019-05-09T18:08:57.626Z,0.90
2019-05-09T18:11:32.908Z,1.10
2019-05-09T18:14:02.267Z,0.97
2019-05-09T18:16:34.346Z,1.27
2019-05-09T18:19:04.913Z,1.50
2019-05-09T18:21:49.609Z,1.07
2019-05-09T18:24:09.228Z,0.90
2019-05-09T18:26:47.560Z,0.90
2019-05-09T18:29:18.240Z,1.50
2019-05-09T18:32:07.681Z,0.87
2019-05-09T18:34:39.073Z,1.20
2019-05-09T18:37:09.117Z,0.90
2019-05-09T18:39:44.167Z,1.00
2019-05-09T18:42:19.478Z,0.97
2019-05-09T18:44:50.187Z,1.00
2019-05-09T18:47:21.677Z,0.90
2019-05-09T18:49:54.226Z,0.80
2019-05-09T18:52:25.514Z,1.17
2019-05-09T18:54:57.959Z,1.03
2019-05-09T18:57:31.679Z,1.30
2019-05-09T19:00:02.803Z,0.97
2019-05-09T19:02:36.671Z,1.10
2019-05-09T19:05:06.743Z,1.20
2019-05-09T19:07:40.198Z,1.00
2019-05-09T19:10:15.500Z,1.20
2019-05-09T19:12:45.193Z,0.90
2019-05-09T19:15:42.443Z,1.27
2019-05-09T19:18:31.879Z,1.73
2019-05-09T19:21:14.547Z,0.97
2019-05-09T19:23:48.116Z,1.67
2019-05-09T19:26:36.712Z,1.20
2019-05-09T19:29:11.568Z,1.07
2019-05-09T19:31:43.298Z,1.50
2019-05-09T19:34:21.260Z,1.40
2019-05-09T19:36:52.441Z,1.40
2019-05-09T19:39:25.405Z,1.33
2019-05-09T19:41:54.544Z,1.20
2019-05-09T19:44:25.800Z,1.13
2019-05-09T19:47:01.367Z,1.07
2019-05-09T19:49:30.010Z,1.40
2019-05-09T19:52:07.000Z,1.77
2019-05-09T19:54:42.348Z,1.30
2019-05-09T19:57:13.629Z,1.40
2019-05-09T19:59:43.132Z,1.30
2019-05-09T20:02:24.149Z,1.27
2019-05-09T20:05:00.344Z,1.47
2019-05-09T20:07:34.521Z,1.40
2019-05-09T20:10:23.458Z,1.20
2019-05-09T20:13:22.925Z,1.20
2019-05-09T20:15:57.306Z,1.40
2019-05-09T20:18:33.788Z,1.30
2019-05-09T20:21:04.328Z,1.20
2019-05-09T20:23:34.448Z,1.93
2019-05-09T20:26:05.134Z,1.30
2019-05-09T20:28:38.675Z,1.13
2019-05-09T20:31:08.263Z,1.30
2019-05-09T20:33:39.956Z,1.53
2019-05-09T20:36:15.817Z,1.13
2019-05-09T20:38:45.976Z,0.90
2019-05-09T20:41:24.988Z,1.13
2019-05-09T20:44:03.177Z,1.20
2019-05-09T20:46:38.863Z,0.93
2019-05-09T20:49:09.410Z,1.47
2019-05-09T20:51:42.276Z,1.30
2019-05-09T20:54:20.956Z,1.33
2019-05-09T20:56:45.404Z,0.93
2019-05-09T20:59:17.850Z,1.23
2019-05-09T21:01:53.917Z,1.50
2019-05-09T21:04:33.079Z,2.10
2019-05-09T21:07:10.613Z,1.57
2019-05-09T21:09:49.351Z,1.97
2019-05-09T21:12:28.229Z,2.00
2019-05-09T21:15:00.027Z,1.80
2019-05-09T21:17:57.611Z,1.60
2019-05-09T21:20:27.701Z,1.73
2019-05-09T21:23:00.830Z,1.83
2019-05-09T21:25:33.146Z,1.70
2019-05-09T21:28:05.027Z,2.83
2019-05-09T21:30:42.479Z,1.93
2019-05-09T21:33:13.428Z,2.00
2019-05-09T21:35:45.462Z,2.23
2019-05-09T21:38:22.406Z,1.97
2019-05-09T21:40:55.942Z,2.27
2019-05-09T21:43:28.098Z,2.43
2019-05-09T21:46:02.946Z,2.10
2019-05-09T21:48:53.784Z,1.90
2019-05-09T21:51:25.300Z,1.60
2019-05-09T21:53:54.442Z,1.67
2019-05-09T21:56:29.887Z,1.13
2019-05-09T21:58:59.862Z,1.30
2019-05-09T22:01:33.867Z,0.90
2019-05-09T22:04:13.027Z,1.30
2019-05-09T22:06:43.109Z,1.07
2019-05-09T22:09:36.534Z,0.83
2019-05-09T22:12:07.269Z,0.80
2019-05-09T22:14:41.039Z,1.60
2019-05-09T22:17:20.735Z,1.20
2019-05-09T22:19:51.740Z,1.00
2019-05-09T22:22:21.495Z,1.10
2019-05-09T22:24:51.082Z,0.90
2019-05-09T22:27:21.073Z,0.80
2019-05-09T22:29:50.632Z,0.97
2019-05-09T22:32:32.852Z,1.00
2019-05-09T22:35:03.761Z,1.47
2019-05-09T22:37:36.420Z,0.90
2019-05-09T22:40:12.337Z,1.03
2019-05-09T22:42:44.300Z,0.80
2019-05-09T22:45:31.854Z,0.93
2019-05-09T22:48:03.017Z,0.83
2019-05-09T22:50:45.717Z,1.00
2019-05-09T22:53:23.833Z,1.30
2019-05-09T22:55:55.203Z,0.83
2019-05-09T22:58:28.192Z,1.03
2019-05-09T23:01:01.654Z,1.07
2019-05-09T23:03:33.637Z,1.37
2019-05-09T23:06:05.228Z,1.03
2019-05-09T23:08:39.708Z,1.30
2019-05-09T23:11:11.404Z,1.13
2019-05-09T23:13:52.161Z,1.40
2019-05-09T23:16:25.533Z,1.57
2019-05-09T23:18:54.495Z,1.43
2019-05-09T23:21:24.869Z,2.10
2019-05-09T23:23:57.116Z,1.40
2019-05-09T23:26:25.842Z,1.43
2019-05-09T23:28:54.510Z,1.73
2019-05-09T23:31:33.835Z,1.60
2019-05-09T23:34:02.429Z,1.30
2019-05-09T23:36:31.089Z,1.40
2019-05-09T23:39:16.461Z,1.67
2019-05-09T23:41:45.134Z,1.53
2019-05-09T23:44:13.982Z,1.47
2019-05-09T23:46:42.662Z,2.10
2019-05-09T23:49:11.256Z,1.70
2019-05-09T23:51:46.423Z,2.13
2019-05-09T23:54:45.382Z,2.10
2019-05-09T23:57:22.461Z,2.07
